Time;durP1;ratioP1;P1;durP2;ratioP2;P2;SDS_P1;SDS_P2;PMS_P1;PMS_P2;Temp;Humidity;BMP_temperature;BMP_pressure;BME280_temperature;BME280_humidity;BME280_pressure;Samples;Min_cycle;Max_cycle;Signal;HPM_P1;HPM_P2
2023/04/09 00:02:12;;;;;;;0.10;0.10;;;;;;;;;;6188312;23;20059;-89
2023/04/09 00:04:38;;;;;;;0.00;0.00;;;5.20;99.90;;;;;;6189077;23;20021;-88
2023/04/09 00:07:03;;;;;;;0.10;0.10;;;5.60;99.90;;;;;;6188912;23;20005;-90
2023/04/09 00:09:29;;;;;;;0.10;0.10;;;5.10;99.90;;;;;;6188699;23;20030;-89
2023/04/09 00:11:57;;;;;;;0.10;0.10;;;;;;;;;;6188712;23;20432;-89
2023/04/09 00:14:23;;;;;;;0.10;0.10;;;5.10;99.90;;;;;;6188940;23;20005;-88
2023/04/09 00:16:48;;;;;;;0.10;0.10;;;5.20;99.90;;;;;;6189029;23;20097;-90
2023/04/09 00:19:14;;;;;;;0.10;0.10;;;5.00;99.90;;;;;;6189274;23;20035;-88
2023/04/09 00:21:39;;;;;;;0.10;0.10;;;5.10;99.90;;;;;;6189243;23;20009;-89
2023/04/09 00:24:05;;;;;;;0.10;0.10;;;5.80;99.90;;;;;;6188614;23;20008;-90
2023/04/09 00:26:31;;;;;;;0.10;0.10;;;5.10;99.90;;;;;;6189017;23;20005;-89
2023/04/09 00:28:56;;;;;;;0.10;0.10;;;5.00;99.90;;;;;;6189186;23;20054;-89
2023/04/09 00:31:22;;;;;;;0.10;0.10;;;5.00;99.90;;;;;;6188378;23;20357;-89
2023/04/09 00:33:47;;;;;;;0.10;0.10;;;5.50;99.90;;;;;;6188995;23;20005;-88
2023/04/09 00:36:13;;;;;;;0.10;0.10;;;5.10;99.90;;;;;;6188421;23;20486;-88
2023/04/09 00:38:39;;;;;;;0.10;0.10;;;5.00;99.90;;;;;;6188721;23;20001;-89
2023/04/09 00:41:05;;;;;;;0.10;0.10;;;5.00;99.90;;;;;;6188303;23;20349;-89
2023/04/09 00:43:30;;;;;;;0.10;0.10;;;5.30;99.90;;;;;;6187886;23;20011;-88
2023/04/09 00:45:57;;;;;;;0.10;0.10;;;5.60;99.90;;;;;;6188442;23;20012;-88
2023/04/09 00:48:23;;;;;;;0.10;0.10;;;4.70;99.90;;;;;;6188811;23;20034;-89
2023/04/09 00:50:48;;;;;;;0.10;0.10;;;4.70;99.90;;;;;;6189195;23;20008;-88
2023/04/09 00:53:15;;;;;;;0.10;0.10;;;5.10;99.90;;;;;;6189401;23;20005;-89
2023/04/09 00:55:41;;;;;;;0.10;0.10;;;;;;;;;;6189684;23;20020;-88
2023/04/09 00:58:07;;;;;;;0.10;0.10;;;4.90;99.90;;;;;;6190521;23;20005;-88
2023/04/09 01:00:33;;;;;;;0.10;0.10;;;5.00;99.90;;;;;;6189074;23;20008;-89
2023/04/09 01:02:59;;;;;;;0.10;0.10;;;4.80;99.90;;;;;;6189638;23;20004;-87
2023/04/09 01:06:09;;;;;;;0.10;0.10;;;5.70;99.90;;;;;;6188889;23;20082;-88
2023/04/09 01:09:16;;;;;;;0.10;0.10;;;4.70;99.90;;;;;;6188163;23;20044;-90
2023/04/09 01:11:57;;;;;;;0.10;0.10;;;4.70;99.90;;;;;;6188206;23;20228;-91
2023/04/09 01:14:35;;;;;;;0.10;0.10;;;4.50;99.90;;;;;;6188482;23;20088;-88
2023/04/09 01:17:05;;;;;;;0.10;0.10;;;4.40;99.90;;;;;;6188564;23;20001;-88
2023/04/09 01:19:39;;;;;;;;;;;4.40;99.90;;;;;;6189688;23;20004;-88
2023/04/09 01:22:19;;;;;;;0.10;0.10;;;4.50;99.90;;;;;;6189571;23;19900;-88
2023/04/09 01:25:00;;;;;;;0.10;0.10;;;4.50;99.90;;;;;;6189814;23;20012;-88
2023/04/09 01:27:37;;;;;;;0.10;0.10;;;4.50;99.90;;;;;;6189479;23;20005;-89
2023/04/09 01:30:04;;;;;;;0.10;0.10;;;4.50;99.90;;;;;;6187674;23;20004;-88
2023/04/09 01:32:32;;;;;;;0.10;0.10;;;4.50;99.90;;;;;;6188655;23;20008;-88
2023/04/09 01:34:58;;;;;;;0.10;0.10;;;4.50;99.90;;;;;;6189977;23;20004;-89
2023/04/09 01:37:25;;;;;;;0.10;0.10;;;4.50;99.90;;;;;;6189776;23;20007;-89
2023/04/09 01:39:51;;;;;;;0.10;0.10;;;4.40;99.90;;;;;;6189929;23;20031;-89
2023/04/09 01:42:17;;;;;;;0.10;0.10;;;4.30;99.90;;;;;;6190119;23;20004;-88
2023/04/09 01:44:44;;;;;;;0.10;0.10;;;5.30;99.90;;;;;;6189662;23;20007;-89
2023/04/09 01:47:10;;;;;;;0.10;0.10;;;;;;;;;;6188935;23;20004;-89
2023/04/09 01:49:38;;;;;;;0.10;0.10;;;3.90;99.90;;;;;;6189672;23;20013;-88
2023/04/09 01:52:08;;;;;;;0.10;0.10;;;4.80;99.90;;;;;;6193600;23;20005;-88
2023/04/09 01:54:33;;;;;;;0.10;0.10;;;4.10;99.90;;;;;;6192860;23;20080;-88
2023/04/09 01:57:04;;;;;;;0.10;0.10;;;4.10;99.90;;;;;;6198069;23;20004;-88
2023/04/09 01:59:30;;;;;;;0.10;0.10;;;;;;;;;;6166856;23;20098;-89
2023/04/09 02:02:02;;;;;;;0.03;0.03;;;4.00;99.90;;;;;;6188888;23;20013;-88
2023/04/09 02:04:49;;;;;;;0.10;0.10;;;3.90;99.90;;;;;;6189391;23;20447;-89
2023/04/09 02:07:37;;;;;;;0.10;0.10;;;3.80;99.90;;;;;;6200368;23;20001;-89
2023/04/09 02:10:07;;;;;;;0.10;0.10;;;3.90;99.90;;;;;;6198207;23;20009;-89
2023/04/09 08:25:44;;;;;;;0.10;0.10;;;;;;;;;;6184320;23;20024;-88
2023/04/09 08:28:09;;;;;;;0.10;0.10;;;8.30;99.90;;;;;;6158011;23;20001;-90
2023/04/09 08:30:35;;;;;;;0.10;0.10;;;8.60;99.90;;;;;;6155599;23;20338;-89
2023/04/09 08:33:01;;;;;;;0.10;0.10;;;8.60;99.90;;;;;;6158015;23;20012;-90
2023/04/09 08:35:28;;;;;;;0.10;0.10;;;8.70;99.90;;;;;;6159966;23;20061;-89
2023/04/09 08:37:55;;;;;;;0.08;0.08;;;8.70;99.90;;;;;;6158473;23;20005;-90
2023/04/09 08:40:21;;;;;;;0.10;0.10;;;8.70;99.90;;;;;;6160879;23;20095;-90
2023/04/09 08:42:54;;;;;;;0.08;0.08;;;8.80;99.90;;;;;;6160263;23;20497;-89
2023/04/09 08:45:19;;;;;;;0.10;0.10;;;8.90;99.90;;;;;;6186560;23;20012;-89
2023/04/09 08:47:48;;;;;;;0.10;0.10;;;8.70;99.90;;;;;;6159314;23;20013;-89
2023/04/09 08:50:13;;;;;;;0.10;0.10;;;8.60;99.90;;;;;;6157879;23;20039;-89
2023/04/09 08:52:39;;;;;;;0.10;0.10;;;8.60;99.90;;;;;;6159893;23;20040;-89
2023/04/09 08:55:06;;;;;;;0.10;0.10;;;8.40;99.90;;;;;;6159454;23;20005;-89
2023/04/09 08:57:38;;;;;;;0.10;0.10;;;8.30;99.90;;;;;;6185761;23;20540;-88
2023/04/09 09:00:05;;;;;;;0.10;0.10;;;8.30;99.90;;;;;;6154013;23;20434;-89
2023/04/09 09:02:30;;;;;;;0.10;0.10;;;8.30;99.90;;;;;;6155077;23;20028;-89
2023/04/09 09:04:59;;;;;;;0.10;0.10;;;8.20;99.90;;;;;;6160256;23;20021;-89
2023/04/09 09:07:28;;;;;;;0.10;0.10;;;8.00;99.90;;;;;;6158006;23;20434;-88
2023/04/09 09:09:58;;;;;;;0.10;0.10;;;8.00;99.90;;;;;;6156042;23;20012;-87
2023/04/09 09:12:38;;;;;;;0.10;0.10;;;8.00;99.90;;;;;;6153648;23;20008;-86
2023/04/09 09:15:26;;;;;;;0.20;0.20;;;8.00;99.90;;;;;;6154464;23;20350;-88
2023/04/09 09:17:54;;;;;;;0.10;0.10;;;8.10;99.90;;;;;;6153908;23;20005;-89
2023/04/09 09:20:21;;;;;;;0.00;0.00;;;8.10;99.90;;;;;;6155758;23;20080;-89
2023/04/09 09:22:51;;;;;;;0.10;0.10;;;8.10;99.90;;;;;;6155893;23;20084;-88
2023/04/09 09:25:17;;;;;;;0.10;0.10;;;8.00;99.90;;;;;;6181284;23;20048;-89
2023/04/09 09:27:42;;;;;;;0.10;0.10;;;8.10;99.90;;;;;;6151850;23;20005;-88
2023/04/09 09:30:18;;;;;;;0.10;0.10;;;8.10;99.90;;;;;;6153132;23;20012;-88
2023/04/09 09:32:44;;;;;;;0.00;0.00;;;8.20;99.90;;;;;;6156623;23;19997;-88
2023/04/09 09:35:11;;;;;;;0.10;0.10;;;;;;;;;;6184702;23;20062;-88
2023/04/09 09:37:36;;;;;;;0.10;0.10;;;8.40;99.90;;;;;;6155921;23;20001;-88
2023/04/09 09:40:03;;;;;;;0.10;0.10;;;8.40;99.90;;;;;;6156088;23;20541;-88
2023/04/09 09:42:29;;;;;;;0.10;0.10;;;8.50;99.90;;;;;;6180791;23;20363;-88
2023/04/09 09:44:54;;;;;;;0.10;0.10;;;8.60;99.90;;;;;;6154055;23;20016;-88
2023/04/09 09:47:21;;;;;;;0.10;0.10;;;8.50;99.90;;;;;;6180783;23;20005;-89
2023/04/09 09:49:50;;;;;;;0.10;0.10;;;8.60;99.90;;;;;;6154485;23;20008;-88
2023/04/09 09:52:22;;;;;;;0.05;0.05;;;8.80;99.90;;;;;;6153464;23;20001;-88
2023/04/09 09:54:51;;;;;;;0.10;0.10;;;8.90;99.90;;;;;;6155349;23;20032;-87
2023/04/09 09:57:19;;;;;;;0.10;0.10;;;9.00;99.90;;;;;;6154727;23;20008;-88
2023/04/09 09:59:54;;;;;;;0.10;0.10;;;9.40;99.90;;;;;;6156507;23;20086;-89
2023/04/09 10:02:22;;;;;;;0.10;0.10;;;9.30;99.90;;;;;;6156467;23;20013;-89
2023/04/09 10:04:52;;;;;;;0.10;0.10;;;9.40;99.90;;;;;;6155992;23;20405;-89
2023/04/09 10:07:20;;;;;;;0.10;0.10;;;9.60;99.90;;;;;;6182627;23;20011;-89
2023/04/09 10:09:50;;;;;;;0.10;0.10;;;9.60;99.90;;;;;;6155336;23;20012;-89
2023/04/09 10:12:16;;;;;;;;;;;9.60;99.90;;;;;;6156902;23;20032;-88
2023/04/09 10:14:43;;;;;;;0.10;0.10;;;9.70;99.90;;;;;;6154986;23;19900;-89
2023/04/09 10:17:09;;;;;;;0.10;0.10;;;9.80;99.90;;;;;;6155002;23;20004;-90
2023/04/09 10:19:40;;;;;;;0.10;0.10;;;9.90;99.90;;;;;;6155804;23;20008;-89
2023/04/09 10:22:18;;;;;;;0.10;0.10;;;10.20;99.90;;;;;;6155004;23;20001;-89
2023/04/09 10:24:45;;;;;;;0.10;0.10;;;10.40;99.90;;;;;;6185702;23;20009;-89
2023/04/09 10:27:15;;;;;;;0.10;0.10;;;10.40;99.90;;;;;;6157378;23;20346;-89
2023/04/09 10:29:50;;;;;;;0.08;0.08;;;10.60;99.90;;;;;;6156582;23;20347;-88
2023/04/09 10:32:38;;;;;;;0.10;0.10;;;10.60;99.90;;;;;;6157992;23;20005;-89
2023/04/09 10:35:05;;;;;;;0.10;0.10;;;10.80;99.90;;;;;;6158062;23;20012;-88
2023/04/09 10:37:31;;;;;;;0.05;0.05;;;;;;;;;;6156181;23;20079;-88
2023/04/09 10:39:57;;;;;;;0.05;0.05;;;;;;;;;;6154812;23;20036;-88
2023/04/09 10:42:29;;;;;;;0.00;0.00;;;11.20;99.90;;;;;;6156598;23;20055;-88
2023/04/09 10:45:06;;;;;;;0.00;0.00;;;11.20;99.90;;;;;;6157554;23;20028;-88
2023/04/09 10:47:33;;;;;;;0.10;0.10;;;11.20;99.90;;;;;;6156072;23;20479;-89
2023/04/09 10:50:19;;;;;;;0.00;0.00;;;11.40;99.90;;;;;;6182623;23;20055;-89
2023/04/09 10:52:46;;;;;;;0.10;0.10;;;11.40;99.90;;;;;;6185788;23;20005;-89
2023/04/09 10:55:37;;;;;;;0.00;0.00;;;11.50;99.90;;;;;;6159109;23;20005;-89
2023/04/09 10:58:04;;;;;;;0.00;0.00;;;11.60;99.90;;;;;;6158871;23;20001;-88
2023/04/09 11:00:30;;;;;;;0.00;0.00;;;11.60;99.90;;;;;;6155560;23;20554;-88
2023/04/09 11:03:01;;;;;;;0.00;0.00;;;11.70;99.90;;;;;;6157452;23;20013;-88
2023/04/09 11:05:37;;;;;;;0.00;0.00;;;11.70;99.90;;;;;;6157683;23;20040;-88
2023/04/09 11:08:26;;;;;;;0.03;0.03;;;11.90;99.90;;;;;;6183973;23;20083;-88
2023/04/09 11:10:57;;;;;;;0.10;0.10;;;12.00;99.90;;;;;;6155247;23;20024;-88
2023/04/09 11:13:23;;;;;;;0.00;0.00;;;12.10;99.20;;;;;;6183462;23;20001;-88
2023/04/09 11:15:48;;;;;;;0.00;0.00;;;12.00;99.20;;;;;;6157247;23;20001;-88
2023/04/09 11:18:18;;;;;;;0.00;0.00;;;12.10;99.90;;;;;;6157225;23;20079;-86
2023/04/09 11:20:44;;;;;;;;;;;12.10;98.70;;;;;;6157384;23;20005;-89
2023/04/09 11:23:30;;;;;;;0.10;0.10;;;12.00;98.90;;;;;;6152179;23;19935;-88
2023/04/09 11:25:56;;;;;;;0.00;0.00;;;;;;;;;;6173314;23;20004;-88
2023/04/09 11:28:23;;;;;;;0.00;0.00;;;12.40;98.00;;;;;;6158853;23;20017;-89
2023/04/09 11:30:51;;;;;;;0.00;0.00;;;12.30;98.10;;;;;;6156589;23;20008;-88
2023/04/09 11:33:17;;;;;;;0.00;0.00;;;12.50;99.10;;;;;;6183392;23;20554;-89
2023/04/09 11:35:44;;;;;;;0.00;0.00;;;12.50;99.10;;;;;;6184648;23;20004;-88
2023/04/09 11:38:10;;;;;;;0.00;0.00;;;12.60;99.90;;;;;;6157976;23;20314;-89
2023/04/09 11:40:46;;;;;;;0.00;0.00;;;12.50;96.90;;;;;;6157277;23;20503;-88
2023/04/09 11:43:12;;;;;;;0.00;0.00;;;12.60;95.20;;;;;;6185154;23;20001;-88
2023/04/09 11:45:38;;;;;;;0.00;0.00;;;12.60;95.80;;;;;;6182569;23;20013;-87
2023/04/09 11:48:03;;;;;;;0.00;0.00;;;12.30;96.60;;;;;;6159746;23;20140;-89
2023/04/09 11:50:30;;;;;;;0.00;0.00;;;12.30;97.00;;;;;;6158398;23;20060;-89
2023/04/09 11:52:56;;;;;;;0.00;0.00;;;12.40;96.90;;;;;;6158486;23;20005;-88
2023/04/09 11:55:27;;;;;;;0.05;0.05;;;12.50;95.70;;;;;;6159090;23;20001;-89
2023/04/09 11:57:56;;;;;;;0.00;0.00;;;12.80;94.40;;;;;;6158916;23;20005;-88
2023/04/09 12:00:23;;;;;;;0.00;0.00;;;12.80;94.60;;;;;;6183281;23;20028;-89
2023/04/09 12:02:50;;;;;;;0.00;0.00;;;12.90;95.90;;;;;;6159127;23;20009;-90
2023/04/09 12:05:28;;;;;;;0.00;0.00;;;13.00;94.80;;;;;;6182987;23;20001;-88
2023/04/09 12:08:06;;;;;;;0.03;0.03;;;13.20;93.70;;;;;;6157671;23;20005;-89
2023/04/09 12:10:37;;;;;;;0.00;0.00;;;13.20;93.90;;;;;;6182579;23;20391;-89
2023/04/09 12:13:09;;;;;;;0.00;0.00;;;13.30;95.50;;;;;;6156699;23;20501;-89
2023/04/09 12:15:37;;;;;;;0.00;0.00;;;13.40;94.90;;;;;;6157218;23;20409;-88
2023/04/09 12:18:02;;;;;;;0.00;0.00;;;13.50;92.00;;;;;;6157678;23;20328;-88
2023/04/09 12:20:35;;;;;;;0.00;0.00;;;13.50;92.50;;;;;;6157783;23;20079;-88
2023/04/09 12:23:02;;;;;;;0.00;0.00;;;13.70;93.50;;;;;;6158329;23;20001;-88
2023/04/09 12:25:35;;;;;;;0.00;0.00;;;13.80;93.60;;;;;;6155979;23;20013;-89
2023/04/09 12:28:02;;;;;;;0.00;0.00;;;14.00;93.50;;;;;;6157481;23;20029;-88
2023/04/09 12:30:27;;;;;;;0.00;0.00;;;14.00;93.80;;;;;;6156284;23;20009;-88
2023/04/09 12:32:54;;;;;;;0.00;0.00;;;13.70;93.60;;;;;;6157966;23;20005;-89
2023/04/09 12:35:21;;;;;;;0.00;0.00;;;14.00;92.60;;;;;;6156656;23;20001;-88
2023/04/09 12:37:47;;;;;;;0.00;0.00;;;14.00;92.70;;;;;;6157226;23;20176;-89
2023/04/09 12:40:13;;;;;;;0.00;0.00;;;14.00;91.60;;;;;;6156966;23;20012;-89
2023/04/09 12:42:43;;;;;;;0.00;0.00;;;14.10;92.70;;;;;;6158324;23;20013;-89
2023/04/09 12:45:10;;;;;;;0.00;0.00;;;14.20;92.30;;;;;;6157359;23;20012;-89
2023/04/09 12:47:38;;;;;;;0.00;0.00;;;;;;;;;;6157162;23;20008;-88
2023/04/09 12:50:04;;;;;;;0.00;0.00;;;14.20;92.00;;;;;;6156137;23;20067;-88
2023/04/09 12:52:30;;;;;;;0.00;0.00;;;14.10;91.60;;;;;;6183091;23;20063;-88
2023/04/09 12:54:55;;;;;;;0.00;0.00;;;14.20;92.10;;;;;;6157144;23;20453;-88
2023/04/09 12:57:21;;;;;;;0.00;0.00;;;14.20;91.40;;;;;;6157401;23;20104;-88
2023/04/09 12:59:46;;;;;;;0.00;0.00;;;14.10;91.90;;;;;;6157068;23;20005;-89
2023/04/09 13:02:12;;;;;;;0.00;0.00;;;14.30;93.00;;;;;;6184183;23;20031;-89
2023/04/09 13:04:37;;;;;;;0.00;0.00;;;14.30;92.40;;;;;;6158093;23;20039;-90
2023/04/09 13:07:03;;;;;;;0.00;0.00;;;14.50;93.10;;;;;;6156205;23;20051;-89
2023/04/09 13:09:28;;;;;;;0.00;0.00;;;14.40;91.80;;;;;;6157413;23;20001;-89
2023/04/09 13:11:54;;;;;;;0.00;0.00;;;14.60;93.30;;;;;;6157291;23;20378;-89
2023/04/09 13:14:19;;;;;;;0.00;0.00;;;14.70;92.30;;;;;;6156919;23;20001;-89
2023/04/09 13:16:45;;;;;;;0.00;0.00;;;14.70;91.60;;;;;;6156235;23;20342;-88
2023/04/09 13:19:10;;;;;;;0.00;0.00;;;14.80;92.10;;;;;;6156598;23;20035;-88
2023/04/09 13:21:36;;;;;;;0.00;0.00;;;14.80;91.40;;;;;;6158134;23;20032;-88
2023/04/09 13:24:05;;;;;;;0.00;0.00;;;14.80;90.70;;;;;;6157228;23;20163;-88
2023/04/09 13:26:30;;;;;;;0.00;0.00;;;14.80;91.10;;;;;;6156710;23;20012;-89
2023/04/09 13:28:57;;;;;;;0.00;0.00;;;14.90;90.60;;;;;;6156548;23;20009;-89
2023/04/09 13:31:23;;;;;;;0.00;0.00;;;14.80;90.50;;;;;;6156440;23;20003;-90
2023/04/09 13:33:48;;;;;;;0.00;0.00;;;14.90;91.00;;;;;;6158145;23;20001;-88
2023/04/09 13:36:14;;;;;;;0.00;0.00;;;14.80;90.60;;;;;;6155715;23;20005;-89
2023/04/09 13:38:40;;;;;;;0.00;0.00;;;14.90;90.10;;;;;;6157090;23;20076;-88
2023/04/09 13:41:07;;;;;;;0.00;0.00;;;14.90;88.90;;;;;;6157034;23;20009;-88
2023/04/09 13:43:33;;;;;;;0.00;0.00;;;15.00;90.20;;;;;;6156646;23;20083;-89
2023/04/09 13:45:58;;;;;;;0.00;0.00;;;15.10;90.10;;;;;;6155227;23;20009;-89
2023/04/09 13:48:24;;;;;;;0.00;0.00;;;;;;;;;;6157149;23;20005;-89
2023/04/09 13:50:50;;;;;;;0.00;0.00;;;15.10;89.90;;;;;;6157286;23;20080;-89
2023/04/09 13:53:15;;;;;;;0.00;0.00;;;15.10;90.20;;;;;;6157297;23;20048;-89
2023/04/09 13:55:42;;;;;;;0.00;0.00;;;;;;;;;;6156606;23;20490;-89
2023/04/09 13:58:07;;;;;;;0.00;0.00;;;15.00;90.60;;;;;;6157494;23;20005;-89
2023/04/09 14:00:34;;;;;;;0.00;0.00;;;15.10;91.00;;;;;;6155879;23;20007;-89
2023/04/09 14:03:02;;;;;;;0.00;0.00;;;;;;;;;;6157522;23;20016;-88
2023/04/09 14:05:28;;;;;;;0.00;0.00;;;15.00;91.20;;;;;;6156852;23;20012;-89
2023/04/09 14:07:54;;;;;;;0.10;0.10;;;;;;;;;;6156141;23;20001;-88
2023/04/09 14:10:19;;;;;;;0.00;0.00;;;14.90;91.60;;;;;;6156970;23;20075;-89
2023/04/09 14:12:45;;;;;;;0.00;0.00;;;14.80;91.60;;;;;;6156412;23;20052;-90
2023/04/09 14:15:11;;;;;;;0.00;0.00;;;;;;;;;;6157612;23;20080;-88
2023/04/09 14:17:36;;;;;;;0.00;0.00;;;14.70;91.60;;;;;;6157106;23;20009;-89
2023/04/09 14:20:02;;;;;;;0.00;0.00;;;14.80;92.00;;;;;;6155934;23;20347;-89
2023/04/09 15:11:39;;;;;;;0.00;0.00;;;14.70;89.40;;;;;;6243505;23;20043;-92
2023/04/09 15:14:04;;;;;;;0.00;0.00;;;16.40;90.50;;;;;;6216562;23;20080;-92
2023/04/09 15:16:32;;;;;;;0.00;0.00;;;;;;;;;;6215980;23;20000;-92
2023/04/09 15:18:58;;;;;;;0.00;0.00;;;;;;;;;;6217106;23;20004;-92
2023/04/09 15:21:26;;;;;;;0.00;0.00;;;;;;;;;;6241361;23;20031;-92
2023/04/09 15:23:52;;;;;;;0.00;0.00;;;;;;;;;;6242744;23;20008;-92
2023/04/09 15:26:19;;;;;;;0.00;0.00;;;;;;;;;;6240987;23;20004;-92
2023/04/09 15:28:45;;;;;;;0.00;0.00;;;;;;;;;;6241414;22;20084;-92
2023/04/09 15:31:11;;;;;;;0.00;0.00;;;;;;;;;;6240343;23;20409;-92
2023/04/09 15:33:37;;;;;;;0.00;0.00;;;;;;;;;;6241999;23;20000;-91
2023/04/09 15:36:03;;;;;;;0.00;0.00;;;;;;;;;;6241001;23;20015;-92
2023/04/09 15:38:30;;;;;;;0.00;0.00;;;;;;;;;;6242175;22;20008;-91
2023/04/09 15:40:56;;;;;;;0.00;0.00;;;;;;;;;;6241635;23;20062;-91
2023/04/09 15:43:22;;;;;;;0.00;0.00;;;14.90;86.60;;;;;;6241577;23;20004;-91
2023/04/09 15:45:51;;;;;;;0.00;0.00;;;14.80;87.80;;;;;;6213863;23;20008;-92
2023/04/09 15:48:18;;;;;;;0.00;0.00;;;;;;;;;;6216326;23;20004;-92
2023/04/09 15:50:44;;;;;;;0.00;0.00;;;;;;;;;;6241876;23;20012;-92
2023/04/09 15:53:10;;;;;;;0.00;0.00;;;;;;;;;;6241756;23;20058;-92
2023/04/09 15:55:36;;;;;;;0.00;0.00;;;;;;;;;;6242378;23;20004;-92
2023/04/09 15:58:01;;;;;;;0.00;0.00;;;;;;;;;;6240137;22;20400;-92
2023/04/09 16:00:27;;;;;;;0.00;0.00;;;14.60;90.30;;;;;;6241438;23;20518;-91
2023/04/09 16:02:53;;;;;;;0.00;0.00;;;;;;;;;;6216256;23;20039;-92
2023/04/09 16:05:19;;;;;;;0.00;0.00;;;14.60;90.60;;;;;;6239712;23;20030;-91
2023/04/09 16:07:44;;;;;;;0.00;0.00;;;14.40;90.50;;;;;;6217118;23;20012;-91
2023/04/09 16:10:10;;;;;;;0.00;0.00;;;14.40;90.20;;;;;;6218109;23;20008;-92
2023/04/09 16:12:36;;;;;;;0.00;0.00;;;;;;;;;;6217646;23;19996;-91
2023/04/09 16:15:02;;;;;;;0.00;0.00;;;;;;;;;;6243370;23;20004;-92
2023/04/09 16:17:28;;;;;;;0.00;0.00;;;;;;;;;;6242219;22;20333;-92
2023/04/09 16:19:53;;;;;;;0.00;0.00;;;14.40;89.10;;;;;;6241586;23;20008;-92
2023/04/09 16:22:19;;;;;;;0.00;0.00;;;;;;;;;;6217378;23;20004;-92
2023/04/09 16:24:45;;;;;;;0.00;0.00;;;;;;;;;;6243150;23;20031;-93
2023/04/09 16:27:13;;;;;;;0.00;0.00;;;14.40;90.50;;;;;;6242663;22;20541;-92
2023/04/09 16:29:39;;;;;;;0.00;0.00;;;;;;;;;;6209224;23;20047;-91
2023/04/09 16:32:04;;;;;;;0.10;0.10;;;14.40;89.00;;;;;;6243525;23;20004;-91
2023/04/09 16:34:30;;;;;;;0.00;0.00;;;;;;;;;;6219479;23;20046;-92
2023/04/09 16:36:56;;;;;;;0.00;0.00;;;14.40;88.30;;;;;;6244417;22;20034;-92
2023/04/09 16:39:21;;;;;;;0.00;0.00;;;14.50;86.50;;;;;;6219012;23;20000;-91
2023/04/09 16:41:48;;;;;;;0.00;0.00;;;;;;;;;;6213857;23;20012;-91
2023/04/09 16:44:13;;;;;;;0.00;0.00;;;14.50;87.70;;;;;;6238774;23;20011;-91
2023/04/09 16:46:39;;;;;;;0.00;0.00;;;;;;;;;;6213264;22;20350;-91
2023/04/09 16:49:05;;;;;;;0.00;0.00;;;14.50;88.00;;;;;;6238446;23;20330;-91
2023/04/09 16:51:31;;;;;;;0.00;0.00;;;;;;;;;;6215520;23;20004;-92
2023/04/09 16:53:56;;;;;;;0.00;0.00;;;14.50;89.70;;;;;;6241234;23;20011;-92
2023/04/09 16:56:22;;;;;;;0.00;0.00;;;14.30;89.40;;;;;;6220484;23;20003;-91
2023/04/09 16:58:48;;;;;;;0.00;0.00;;;;;;;;;;6216680;23;20240;-91
2023/04/09 17:01:14;;;;;;;0.00;0.00;;;;;;;;;;6242941;23;20010;-91
2023/04/09 17:03:40;;;;;;;0.00;0.00;;;13.90;90.40;;;;;;6241854;23;20012;-91
2023/04/09 17:06:06;;;;;;;0.00;0.00;;;;;;;;;;6216819;23;20004;-92
2023/04/09 17:08:31;;;;;;;0.00;0.00;;;13.60;91.70;;;;;;6242619;22;20050;-91
2023/04/09 17:11:03;;;;;;;0.00;0.00;;;13.50;92.00;;;;;;6217557;23;20015;-90
2023/04/09 17:13:30;;;;;;;0.00;0.00;;;13.40;92.20;;;;;;6218225;23;20000;-89
2023/04/09 17:15:56;;;;;;;0.00;0.00;;;;;;;;;;6216134;23;20004;-93
2023/04/09 17:18:22;;;;;;;0.00;0.00;;;;;;;;;;6242037;22;20293;-92
2023/04/09 17:20:49;;;;;;;0.00;0.00;;;13.20;91.70;;;;;;6240685;23;20263;-92
2023/04/09 17:23:15;;;;;;;0.00;0.00;;;;;;;;;;6216439;23;20004;-91
2023/04/09 17:25:40;;;;;;;0.00;0.00;;;13.10;92.80;;;;;;6240933;23;20012;-90
2023/04/09 17:28:06;;;;;;;0.00;0.00;;;13.10;93.40;;;;;;6215551;23;20014;-91
2023/04/09 17:30:34;;;;;;;0.00;0.00;;;13.00;93.20;;;;;;6216727;23;20004;-92
2023/04/09 17:33:00;;;;;;;0.00;0.00;;;;;;;;;;6216023;23;20000;-91
2023/04/09 17:35:26;;;;;;;0.00;0.00;;;12.80;93.70;;;;;;6241952;23;20012;-92
2023/04/09 17:37:52;;;;;;;0.00;0.00;;;12.70;94.20;;;;;;6216691;23;20346;-92
2023/04/09 17:40:18;;;;;;;0.00;0.00;;;12.60;94.00;;;;;;6216356;23;20016;-92
2023/04/09 17:42:45;;;;;;;0.00;0.00;;;;;;;;;;6216697;23;20031;-92
2023/04/09 17:45:11;;;;;;;0.00;0.00;;;;;;;;;;6238494;23;20008;-92
2023/04/09 17:47:37;;;;;;;0.00;0.00;;;;;;;;;;6238499;22;20008;-92
2023/04/09 17:50:04;;;;;;;0.00;0.00;;;;;;;;;;6241653;23;20004;-92
2023/04/09 17:52:35;;;;;;;0.00;0.00;;;;;;;;;;6240063;23;20004;-91
2023/04/09 17:55:01;;;;;;;0.00;0.00;;;;;;;;;;6241607;23;20402;-92
2023/04/09 17:57:27;;;;;;;0.00;0.00;;;;;;;;;;6240737;22;20004;-92
2023/04/09 17:59:53;;;;;;;0.00;0.00;;;;;;;;;;6241274;23;20146;-93
2023/04/09 18:02:20;;;;;;;0.00;0.00;;;;;;;;;;6241680;23;20012;-91
2023/04/09 18:04:46;;;;;;;0.00;0.00;;;;;;;;;;6241384;23;20367;-92
2023/04/09 18:07:12;;;;;;;0.00;0.00;;;;;;;;;;6241780;22;20397;-91
2023/04/09 18:09:39;;;;;;;0.00;0.00;;;;;;;;;;6239871;23;20015;-92
2023/04/09 18:12:05;;;;;;;0.00;0.00;;;;;;;;;;6240320;23;20062;-91
2023/04/09 18:14:31;;;;;;;0.00;0.00;;;;;;;;;;6241184;23;20000;-92
2023/04/09 18:16:57;;;;;;;0.10;0.10;;;;;;;;;;6242347;22;20011;-92
2023/04/09 18:19:23;;;;;;;0.00;0.00;;;;;;;;;;6243994;23;20004;-91
2023/04/09 18:21:49;;;;;;;0.00;0.00;;;;;;;;;;6241939;23;20014;-92
2023/04/09 18:24:16;;;;;;;0.00;0.00;;;;;;;;;;6240633;23;20015;-91
2023/04/09 18:26:42;;;;;;;0.00;0.00;;;;;;;;;;6241177;22;20008;-93
2023/04/09 18:29:07;;;;;;;0.00;0.00;;;10.80;96.60;;;;;;6241560;23;20341;-91
2023/04/09 18:31:33;;;;;;;0.00;0.00;;;10.60;97.00;;;;;;6215409;23;20418;-91
2023/04/09 18:33:59;;;;;;;0.00;0.00;;;;;;;;;;6216559;23;20458;-91
2023/04/09 18:36:27;;;;;;;0.10;0.10;;;;;;;;;;6239118;23;20014;-91
2023/04/09 18:38:52;;;;;;;0.00;0.00;;;;;;;;;;6240131;22;20027;-92
2023/04/09 18:41:25;;;;;;;0.00;0.00;;;10.40;98.30;;;;;;6240861;23;20355;-91
2023/04/09 18:43:51;;;;;;;0.00;0.00;;;;;;;;;;6215786;23;20182;-91
2023/04/09 18:46:17;;;;;;;0.00;0.00;;;;;;;;;;6239759;23;20452;-90
2023/04/09 18:48:45;;;;;;;0.00;0.00;;;;;;;;;;6239648;22;20035;-89
2023/04/09 18:51:11;;;;;;;0.10;0.10;;;;;;;;;;6240271;23;20067;-90
2023/04/09 18:53:37;;;;;;;0.10;0.10;;;;;;;;;;6241023;23;20062;-92
2023/04/09 18:56:03;;;;;;;0.10;0.10;;;;;;;;;;6241115;23;20492;-92
2023/04/09 18:58:29;;;;;;;0.03;0.03;;;;;;;;;;6239682;22;20031;-91
2023/04/09 19:00:55;;;;;;;0.00;0.00;;;;;;;;;;6239853;23;20460;-92
2023/04/09 19:03:22;;;;;;;0.00;0.00;;;;;;;;;;6241774;23;20011;-92
2023/04/09 19:05:48;;;;;;;0.00;0.00;;;;;;;;;;6240687;23;20099;-91
2023/04/09 19:08:15;;;;;;;0.00;0.00;;;;;;;;;;6241206;22;20027;-92
2023/04/09 19:10:41;;;;;;;0.00;0.00;;;;;;;;;;6240315;23;20480;-92
2023/04/09 19:13:07;;;;;;;0.10;0.10;;;9.80;99.90;;;;;;6237142;23;20066;-91
2023/04/09 19:15:32;;;;;;;0.10;0.10;;;9.80;99.90;;;;;;6210993;23;20627;-93
2023/04/09 19:17:58;;;;;;;0.00;0.00;;;;;;;;;;6207798;23;20012;-87
2023/04/09 19:20:24;;;;;;;0.10;0.10;;;;;;;;;;6238155;23;20008;-92
2023/04/09 19:22:53;;;;;;;0.05;0.05;;;9.50;99.90;;;;;;6241227;23;20725;-91
2023/04/09 19:25:19;;;;;;;0.10;0.10;;;;;;;;;;6213547;23;20008;-92
2023/04/09 19:27:44;;;;;;;0.10;0.10;;;9.40;99.90;;;;;;6238386;22;20087;-92
2023/04/09 19:30:11;;;;;;;0.10;0.10;;;9.00;99.90;;;;;;6216400;23;20047;-93
2023/04/09 19:32:37;;;;;;;0.10;0.10;;;;;;;;;;6217173;23;20000;-92
2023/04/09 19:35:03;;;;;;;0.10;0.10;;;9.00;99.90;;;;;;6241731;23;20064;-92
2023/04/09 19:37:29;;;;;;;0.10;0.10;;;9.00;99.90;;;;;;6216356;23;20000;-92
2023/04/09 19:39:56;;;;;;;0.10;0.10;;;9.00;99.90;;;;;;6214686;23;20019;-90
2023/04/09 19:42:22;;;;;;;0.10;0.10;;;;;;;;;;6214642;23;20008;-90
2023/04/09 19:44:47;;;;;;;0.10;0.10;;;8.70;99.90;;;;;;6242386;23;20356;-92
2023/04/09 19:47:13;;;;;;;0.10;0.10;;;8.40;99.90;;;;;;6218096;23;20645;-90
2023/04/09 19:49:40;;;;;;;0.10;0.10;;;;;;;;;;6217309;23;20004;-92
2023/04/09 19:52:06;;;;;;;0.10;0.10;;;8.30;99.90;;;;;;6240581;23;20000;-93
2023/04/09 19:54:35;;;;;;;0.10;0.10;;;8.20;99.90;;;;;;6216758;23;20436;-90
2023/04/09 19:57:02;;;;;;;0.10;0.10;;;8.30;99.90;;;;;;6221430;23;20004;-91
2023/04/09 19:59:28;;;;;;;0.10;0.10;;;8.10;99.90;;;;;;6217906;23;20023;-91
2023/04/09 20:01:55;;;;;;;0.10;0.10;;;8.00;99.90;;;;;;6221112;23;20008;-91
2023/04/09 20:04:23;;;;;;;0.10;0.10;;;9.10;99.90;;;;;;6219147;23;20005;-93
2023/04/09 20:06:53;;;;;;;0.10;0.10;;;;;;;;;;6216057;22;20000;-92
2023/04/09 20:09:22;;;;;;;0.20;0.20;;;;;;;;;;6243103;23;20080;-91
2023/04/09 20:11:49;;;;;;;0.10;0.10;;;7.90;99.90;;;;;;6240562;23;20008;-91
2023/04/09 20:14:15;;;;;;;0.10;0.10;;;;;;;;;;6215644;23;20000;-90
2023/04/09 20:16:41;;;;;;;0.10;0.10;;;7.80;99.90;;;;;;6243680;22;20362;-91
2023/04/09 20:19:07;;;;;;;0.10;0.10;;;;;;;;;;6215794;23;20086;-91
2023/04/09 20:21:33;;;;;;;0.10;0.10;;;7.80;99.90;;;;;;6239662;23;20003;-91
2023/04/09 20:23:59;;;;;;;0.10;0.10;;;;;;;;;;6212220;23;20062;-92
2023/04/09 20:26:25;;;;;;;0.10;0.10;;;;;;;;;;6241984;23;20499;-92
2023/04/09 20:28:51;;;;;;;0.10;0.10;;;;;;;;;;6240100;22;20008;-92